sensor_id;sensor_type;location;lat;lon;timestamp;P1;durP1;ratioP1;P2;durP2;ratioP2
48859;SDS011;34679;51.436;-2.518;2022-07-05T00:00:08;2.20;;;1.00;;
48859;SDS011;34679;51.436;-2.518;2022-07-05T00:02:36;0.85;;;0.60;;
48859;SDS011;34679;51.436;-2.518;2022-07-05T00:05:02;0.90;;;0.70;;
48859;SDS011;34679;51.436;-2.518;2022-07-05T00:07:27;2.25;;;0.70;;
48859;SDS011;34679;51.436;-2.518;2022-07-05T00:09:54;3.38;;;0.90;;
48859;SDS011;34679;51.436;-2.518;2022-07-05T00:12:25;1.27;;;0.80;;
48859;SDS011;34679;51.436;-2.518;2022-07-05T00:14:53;1.80;;;1.00;;
48859;SDS011;34679;51.436;-2.518;2022-07-05T00:17:19;2.13;;;1.10;;
48859;SDS011;34679;51.436;-2.518;2022-07-05T00:19:45;6.07;;;0.73;;
48859;SDS011;34679;51.436;-2.518;2022-07-05T00:22:11;1.45;;;1.10;;
48859;SDS011;34679;51.436;-2.518;2022-07-05T00:24:37;3.55;;;0.82;;
48859;SDS011;34679;51.436;-2.518;2022-07-05T00:27:03;3.42;;;0.70;;
48859;SDS011;34679;51.436;-2.518;2022-07-05T00:29:28;0.95;;;0.70;;
48859;SDS011;34679;51.436;-2.518;2022-07-05T00:31:54;1.80;;;1.00;;
48859;SDS011;34679;51.436;-2.518;2022-07-05T00:34:20;1.10;;;0.60;;
48859;SDS011;34679;51.436;-2.518;2022-07-05T00:36:46;2.90;;;0.90;;
48859;SDS011;34679;51.436;-2.518;2022-07-05T00:39:12;1.23;;;0.70;;
48859;SDS011;34679;51.436;-2.518;2022-07-05T00:41:39;2.05;;;0.90;;
48859;SDS011;34679;51.436;-2.518;2022-07-05T00:44:06;1.48;;;0.65;;
48859;SDS011;34679;51.436;-2.518;2022-07-05T00:46:34;1.17;;;0.70;;
48859;SDS011;34679;51.436;-2.518;2022-07-05T00:49:00;3.38;;;1.45;;
48859;SDS011;34679;51.436;-2.518;2022-07-05T00:51:31;1.50;;;0.77;;
48859;SDS011;34679;51.436;-2.518;2022-07-05T00:53:59;3.05;;;1.08;;
48859;SDS011;34679;51.436;-2.518;2022-07-05T00:56:26;3.30;;;0.90;;
48859;SDS011;34679;51.436;-2.518;2022-07-05T00:58:52;1.92;;;1.40;;
48859;SDS011;34679;51.436;-2.518;2022-07-05T01:01:18;2.00;;;1.10;;
48859;SDS011;34679;51.436;-2.518;2022-07-05T01:03:44;3.03;;;1.00;;
48859;SDS011;34679;51.436;-2.518;2022-07-05T01:06:11;2.80;;;0.80;;
48859;SDS011;34679;51.436;-2.518;2022-07-05T01:08:41;2.15;;;0.82;;
48859;SDS011;34679;51.436;-2.518;2022-07-05T01:11:07;1.88;;;0.80;;
48859;SDS011;34679;51.436;-2.518;2022-07-05T01:13:35;0.88;;;0.70;;
48859;SDS011;34679;51.436;-2.518;2022-07-05T01:16:02;0.63;;;0.63;;
48859;SDS011;34679;51.436;-2.518;2022-07-05T01:18:28;0.90;;;0.65;;
48859;SDS011;34679;51.436;-2.518;2022-07-05T01:20:56;2.03;;;0.90;;
48859;SDS011;34679;51.436;-2.518;2022-07-05T01:23:23;1.13;;;0.75;;
48859;SDS011;34679;51.436;-2.518;2022-07-05T01:25:52;1.10;;;0.70;;
48859;SDS011;34679;51.436;-2.518;2022-07-05T01:28:19;2.85;;;0.90;;
48859;SDS011;34679;51.436;-2.518;2022-07-05T01:30:45;1.67;;;0.80;;
48859;SDS011;34679;51.436;-2.518;2022-07-05T01:33:12;1.77;;;1.00;;
48859;SDS011;34679;51.436;-2.518;2022-07-05T01:35:38;3.40;;;1.20;;
48859;SDS011;34679;51.436;-2.518;2022-07-05T01:38:04;1.38;;;1.13;;
48859;SDS011;34679;51.436;-2.518;2022-07-05T01:40:30;5.03;;;1.30;;
48859;SDS011;34679;51.436;-2.518;2022-07-05T01:42:57;4.10;;;1.10;;
48859;SDS011;34679;51.436;-2.518;2022-07-05T01:45:24;2.13;;;1.35;;
48859;SDS011;34679;51.436;-2.518;2022-07-05T01:48:09;2.53;;;1.13;;
48859;SDS011;34679;51.436;-2.518;2022-07-05T01:50:38;1.40;;;1.30;;
48859;SDS011;34679;51.436;-2.518;2022-07-05T01:53:17;2.03;;;1.13;;
48859;SDS011;34679;51.436;-2.518;2022-07-05T01:55:45;2.83;;;1.30;;
48859;SDS011;34679;51.436;-2.518;2022-07-05T01:58:11;1.20;;;0.95;;
48859;SDS011;34679;51.436;-2.518;2022-07-05T02:00:44;6.45;;;1.20;;
48859;SDS011;34679;51.436;-2.518;2022-07-05T02:03:14;1.77;;;1.15;;
48859;SDS011;34679;51.436;-2.518;2022-07-05T02:05:41;3.65;;;1.20;;
48859;SDS011;34679;51.436;-2.518;2022-07-05T02:08:09;2.15;;;1.13;;
48859;SDS011;34679;51.436;-2.518;2022-07-05T02:10:36;1.58;;;1.13;;
48859;SDS011;34679;51.436;-2.518;2022-07-05T02:13:05;1.52;;;1.20;;
48859;SDS011;34679;51.436;-2.518;2022-07-05T02:15:32;3.58;;;1.98;;
48859;SDS011;34679;51.436;-2.518;2022-07-05T02:17:59;2.83;;;1.35;;
48859;SDS011;34679;51.436;-2.518;2022-07-05T02:20:26;1.92;;;1.80;;
48859;SDS011;34679;51.436;-2.518;2022-07-05T02:22:52;2.75;;;1.33;;
48859;SDS011;34679;51.436;-2.518;2022-07-05T02:25:18;2.88;;;1.40;;
48859;SDS011;34679;51.436;-2.518;2022-07-05T02:27:44;7.78;;;1.45;;
48859;SDS011;34679;51.436;-2.518;2022-07-05T02:30:11;4.13;;;1.50;;
48859;SDS011;34679;51.436;-2.518;2022-07-05T02:32:37;8.55;;;1.95;;
48859;SDS011;34679;51.436;-2.518;2022-07-05T02:35:03;9.05;;;2.50;;
48859;SDS011;34679;51.436;-2.518;2022-07-05T02:37:30;4.10;;;2.60;;
48859;SDS011;34679;51.436;-2.518;2022-07-05T02:39:56;7.25;;;2.53;;
48859;SDS011;34679;51.436;-2.518;2022-07-05T02:42:22;6.22;;;2.70;;
48859;SDS011;34679;51.436;-2.518;2022-07-05T02:44:48;13.57;;;3.58;;
48859;SDS011;34679;51.436;-2.518;2022-07-05T02:47:17;8.45;;;2.80;;
48859;SDS011;34679;51.436;-2.518;2022-07-05T02:49:42;9.48;;;2.35;;
48859;SDS011;34679;51.436;-2.518;2022-07-05T02:52:08;7.65;;;2.58;;
48859;SDS011;34679;51.436;-2.518;2022-07-05T02:54:34;7.15;;;2.53;;
48859;SDS011;34679;51.436;-2.518;2022-07-05T02:57:01;8.77;;;2.33;;
48859;SDS011;34679;51.436;-2.518;2022-07-05T02:59:27;4.35;;;2.20;;
48859;SDS011;34679;51.436;-2.518;2022-07-05T03:01:53;9.32;;;2.67;;
48859;SDS011;34679;51.436;-2.518;2022-07-05T03:04:18;4.85;;;2.00;;
48859;SDS011;34679;51.436;-2.518;2022-07-05T03:06:44;5.70;;;2.30;;
48859;SDS011;34679;51.436;-2.518;2022-07-05T03:09:10;9.23;;;2.28;;
48859;SDS011;34679;51.436;-2.518;2022-07-05T03:11:36;4.85;;;2.72;;
48859;SDS011;34679;51.436;-2.518;2022-07-05T03:14:02;10.82;;;2.55;;
48859;SDS011;34679;51.436;-2.518;2022-07-05T03:16:31;3.60;;;2.25;;
48859;SDS011;34679;51.436;-2.518;2022-07-05T03:18:56;3.85;;;2.03;;
48859;SDS011;34679;51.436;-2.518;2022-07-05T03:21:22;6.00;;;2.30;;
48859;SDS011;34679;51.436;-2.518;2022-07-05T03:23:48;3.38;;;2.28;;
48859;SDS011;34679;51.436;-2.518;2022-07-05T03:26:14;4.00;;;2.22;;
48859;SDS011;34679;51.436;-2.518;2022-07-05T03:28:39;4.13;;;1.70;;
48859;SDS011;34679;51.436;-2.518;2022-07-05T03:31:05;4.43;;;2.20;;
48859;SDS011;34679;51.436;-2.518;2022-07-05T03:33:31;3.00;;;2.45;;
48859;SDS011;34679;51.436;-2.518;2022-07-05T03:35:57;2.88;;;1.80;;
48859;SDS011;34679;51.436;-2.518;2022-07-05T03:38:23;6.75;;;2.33;;
48859;SDS011;34679;51.436;-2.518;2022-07-05T03:40:49;8.05;;;2.00;;
48859;SDS011;34679;51.436;-2.518;2022-07-05T03:43:15;9.95;;;2.47;;
48859;SDS011;34679;51.436;-2.518;2022-07-05T03:45:40;2.33;;;1.75;;
48859;SDS011;34679;51.436;-2.518;2022-07-05T03:48:06;4.80;;;1.77;;
48859;SDS011;34679;51.436;-2.518;2022-07-05T03:50:32;4.55;;;1.85;;
48859;SDS011;34679;51.436;-2.518;2022-07-05T03:52:58;6.68;;;1.90;;
48859;SDS011;34679;51.436;-2.518;2022-07-05T03:55:23;3.60;;;1.50;;
48859;SDS011;34679;51.436;-2.518;2022-07-05T03:57:49;4.18;;;1.73;;
48859;SDS011;34679;51.436;-2.518;2022-07-05T04:00:15;4.38;;;1.90;;
48859;SDS011;34679;51.436;-2.518;2022-07-05T04:02:41;4.03;;;1.45;;
48859;SDS011;34679;51.436;-2.518;2022-07-05T04:05:07;3.45;;;1.60;;
48859;SDS011;34679;51.436;-2.518;2022-07-05T04:07:33;6.88;;;1.50;;
48859;SDS011;34679;51.436;-2.518;2022-07-05T04:09:59;4.10;;;1.60;;
48859;SDS011;34679;51.436;-2.518;2022-07-05T04:12:25;2.53;;;1.38;;
48859;SDS011;34679;51.436;-2.518;2022-07-05T04:14:51;5.05;;;1.63;;
48859;SDS011;34679;51.436;-2.518;2022-07-05T04:17:16;2.88;;;1.33;;
48859;SDS011;34679;51.436;-2.518;2022-07-05T04:19:42;2.33;;;1.20;;
48859;SDS011;34679;51.436;-2.518;2022-07-05T04:22:09;2.20;;;1.40;;
48859;SDS011;34679;51.436;-2.518;2022-07-05T04:24:37;3.28;;;1.30;;
48859;SDS011;34679;51.436;-2.518;2022-07-05T04:27:21;3.67;;;1.80;;
48859;SDS011;34679;51.436;-2.518;2022-07-05T04:29:47;3.00;;;1.45;;
48859;SDS011;34679;51.436;-2.518;2022-07-05T04:32:13;3.60;;;1.90;;
48859;SDS011;34679;51.436;-2.518;2022-07-05T04:34:39;2.10;;;1.30;;
48859;SDS011;34679;51.436;-2.518;2022-07-05T04:37:04;7.97;;;2.45;;
48859;SDS011;34679;51.436;-2.518;2022-07-05T04:39:30;3.53;;;1.92;;
48859;SDS011;34679;51.436;-2.518;2022-07-05T04:41:56;2.13;;;1.30;;
48859;SDS011;34679;51.436;-2.518;2022-07-05T04:44:22;2.83;;;1.80;;
48859;SDS011;34679;51.436;-2.518;2022-07-05T04:46:47;5.18;;;1.55;;
48859;SDS011;34679;51.436;-2.518;2022-07-05T04:49:13;2.00;;;1.50;;
48859;SDS011;34679;51.436;-2.518;2022-07-05T04:51:38;3.72;;;1.30;;
48859;SDS011;34679;51.436;-2.518;2022-07-05T04:54:04;2.35;;;1.15;;
48859;SDS011;34679;51.436;-2.518;2022-07-05T04:56:30;3.67;;;1.27;;
48859;SDS011;34679;51.436;-2.518;2022-07-05T04:58:56;2.78;;;1.60;;
48859;SDS011;34679;51.436;-2.518;2022-07-05T05:01:21;2.58;;;1.30;;
48859;SDS011;34679;51.436;-2.518;2022-07-05T05:03:47;1.65;;;0.90;;
48859;SDS011;34679;51.436;-2.518;2022-07-05T05:06:13;1.63;;;0.90;;
48859;SDS011;34679;51.436;-2.518;2022-07-05T05:08:39;3.25;;;0.95;;
48859;SDS011;34679;51.436;-2.518;2022-07-05T05:11:06;2.42;;;1.10;;
48859;SDS011;34679;51.436;-2.518;2022-07-05T05:13:33;3.20;;;1.00;;
48859;SDS011;34679;51.436;-2.518;2022-07-05T05:15:58;1.35;;;0.88;;
48859;SDS011;34679;51.436;-2.518;2022-07-05T05:18:24;3.85;;;1.27;;
48859;SDS011;34679;51.436;-2.518;2022-07-05T05:20:52;5.50;;;1.83;;
48859;SDS011;34679;51.436;-2.518;2022-07-05T05:23:19;2.85;;;1.27;;
48859;SDS011;34679;51.436;-2.518;2022-07-05T05:25:46;3.10;;;1.20;;
48859;SDS011;34679;51.436;-2.518;2022-07-05T05:28:12;3.65;;;0.90;;
48859;SDS011;34679;51.436;-2.518;2022-07-05T05:30:38;4.38;;;1.20;;
48859;SDS011;34679;51.436;-2.518;2022-07-05T05:33:04;2.90;;;1.17;;
48859;SDS011;34679;51.436;-2.518;2022-07-05T05:35:30;7.43;;;1.02;;
48859;SDS011;34679;51.436;-2.518;2022-07-05T05:37:56;4.93;;;1.33;;
48859;SDS011;34679;51.436;-2.518;2022-07-05T05:40:22;9.73;;;0.90;;
48859;SDS011;34679;51.436;-2.518;2022-07-05T05:42:49;2.47;;;1.00;;
48859;SDS011;34679;51.436;-2.518;2022-07-05T05:45:16;7.20;;;1.08;;
48859;SDS011;34679;51.436;-2.518;2022-07-05T05:47:43;1.95;;;0.80;;
48859;SDS011;34679;51.436;-2.518;2022-07-05T05:50:12;1.52;;;1.10;;
48859;SDS011;34679;51.436;-2.518;2022-07-05T05:52:38;4.38;;;1.10;;
48859;SDS011;34679;51.436;-2.518;2022-07-05T05:55:04;4.93;;;1.05;;
48859;SDS011;34679;51.436;-2.518;2022-07-05T05:57:31;6.72;;;1.13;;
48859;SDS011;34679;51.436;-2.518;2022-07-05T05:59:58;4.95;;;0.95;;
48859;SDS011;34679;51.436;-2.518;2022-07-05T06:02:24;2.13;;;0.80;;
48859;SDS011;34679;51.436;-2.518;2022-07-05T06:04:49;1.30;;;1.00;;
48859;SDS011;34679;51.436;-2.518;2022-07-05T06:07:15;2.20;;;1.20;;
48859;SDS011;34679;51.436;-2.518;2022-07-05T06:09:40;2.92;;;1.05;;
48859;SDS011;34679;51.436;-2.518;2022-07-05T06:12:06;3.88;;;1.02;;
48859;SDS011;34679;51.436;-2.518;2022-07-05T06:14:32;2.33;;;1.10;;
48859;SDS011;34679;51.436;-2.518;2022-07-05T06:16:58;2.38;;;1.10;;
48859;SDS011;34679;51.436;-2.518;2022-07-05T06:19:23;4.20;;;1.50;;
48859;SDS011;34679;51.436;-2.518;2022-07-05T06:21:49;2.60;;;1.45;;
48859;SDS011;34679;51.436;-2.518;2022-07-05T06:24:15;4.68;;;1.20;;
48859;SDS011;34679;51.436;-2.518;2022-07-05T06:26:40;2.35;;;0.90;;
48859;SDS011;34679;51.436;-2.518;2022-07-05T06:29:06;2.90;;;1.08;;
48859;SDS011;34679;51.436;-2.518;2022-07-05T06:31:32;3.72;;;1.00;;
48859;SDS011;34679;51.436;-2.518;2022-07-05T06:33:57;2.90;;;1.05;;
48859;SDS011;34679;51.436;-2.518;2022-07-05T06:36:23;4.25;;;1.20;;
48859;SDS011;34679;51.436;-2.518;2022-07-05T06:38:48;1.83;;;0.85;;
48859;SDS011;34679;51.436;-2.518;2022-07-05T06:41:14;5.25;;;1.30;;
48859;SDS011;34679;51.436;-2.518;2022-07-05T06:43:40;3.63;;;1.10;;
48859;SDS011;34679;51.436;-2.518;2022-07-05T06:46:05;3.13;;;1.00;;
48859;SDS011;34679;51.436;-2.518;2022-07-05T06:48:31;3.22;;;0.93;;
48859;SDS011;34679;51.436;-2.518;2022-07-05T06:50:57;2.83;;;1.10;;
48859;SDS011;34679;51.436;-2.518;2022-07-05T06:53:22;4.32;;;1.05;;
48859;SDS011;34679;51.436;-2.518;2022-07-05T06:55:48;3.22;;;1.40;;
48859;SDS011;34679;51.436;-2.518;2022-07-05T06:58:15;3.67;;;1.10;;
48859;SDS011;34679;51.436;-2.518;2022-07-05T07:00:41;5.20;;;1.23;;
48859;SDS011;34679;51.436;-2.518;2022-07-05T07:03:07;2.95;;;0.98;;
48859;SDS011;34679;51.436;-2.518;2022-07-05T07:05:33;5.00;;;1.30;;
48859;SDS011;34679;51.436;-2.518;2022-07-05T07:07:59;6.65;;;1.35;;
48859;SDS011;34679;51.436;-2.518;2022-07-05T07:10:43;2.45;;;0.90;;
48859;SDS011;34679;51.436;-2.518;2022-07-05T07:13:09;2.90;;;0.90;;
48859;SDS011;34679;51.436;-2.518;2022-07-05T07:15:34;2.65;;;0.98;;
48859;SDS011;34679;51.436;-2.518;2022-07-05T07:18:00;5.95;;;2.15;;
48859;SDS011;34679;51.436;-2.518;2022-07-05T07:20:27;2.83;;;1.17;;
48859;SDS011;34679;51.436;-2.518;2022-07-05T07:22:53;6.35;;;1.67;;
48859;SDS011;34679;51.436;-2.518;2022-07-05T07:25:18;4.22;;;1.40;;
48859;SDS011;34679;51.436;-2.518;2022-07-05T07:27:51;3.28;;;1.00;;
48859;SDS011;34679;51.436;-2.518;2022-07-05T07:30:22;2.95;;;1.42;;
48859;SDS011;34679;51.436;-2.518;2022-07-05T07:32:49;2.60;;;1.35;;
48859;SDS011;34679;51.436;-2.518;2022-07-05T07:35:15;3.92;;;1.13;;
48859;SDS011;34679;51.436;-2.518;2022-07-05T07:37:41;5.28;;;1.10;;
48859;SDS011;34679;51.436;-2.518;2022-07-05T07:40:07;2.50;;;0.90;;
48859;SDS011;34679;51.436;-2.518;2022-07-05T07:42:33;4.30;;;0.85;;
48859;SDS011;34679;51.436;-2.518;2022-07-05T07:44:59;3.03;;;1.58;;
48859;SDS011;34679;51.436;-2.518;2022-07-05T07:47:29;3.30;;;1.17;;
48859;SDS011;34679;51.436;-2.518;2022-07-05T07:49:55;6.30;;;1.30;;
48859;SDS011;34679;51.436;-2.518;2022-07-05T07:52:21;3.05;;;1.02;;
48859;SDS011;34679;51.436;-2.518;2022-07-05T07:54:47;2.90;;;1.10;;
48859;SDS011;34679;51.436;-2.518;2022-07-05T07:57:14;3.05;;;1.15;;
48859;SDS011;34679;51.436;-2.518;2022-07-05T07:59:42;2.60;;;0.90;;
48859;SDS011;34679;51.436;-2.518;2022-07-05T08:02:08;3.00;;;1.25;;
48859;SDS011;34679;51.436;-2.518;2022-07-05T08:04:34;3.28;;;1.40;;
48859;SDS011;34679;51.436;-2.518;2022-07-05T08:06:59;4.45;;;1.02;;
48859;SDS011;34679;51.436;-2.518;2022-07-05T08:09:25;1.90;;;1.05;;
48859;SDS011;34679;51.436;-2.518;2022-07-05T08:11:51;3.30;;;1.20;;
48859;SDS011;34679;51.436;-2.518;2022-07-05T08:14:17;2.28;;;1.08;;
48859;SDS011;34679;51.436;-2.518;2022-07-05T08:16:43;5.15;;;0.90;;
48859;SDS011;34679;51.436;-2.518;2022-07-05T08:19:12;2.42;;;0.98;;
48859;SDS011;34679;51.436;-2.518;2022-07-05T08:21:56;1.95;;;0.90;;
48859;SDS011;34679;51.436;-2.518;2022-07-05T08:24:22;4.72;;;1.10;;
48859;SDS011;34679;51.436;-2.518;2022-07-05T08:26:48;4.03;;;1.17;;
48859;SDS011;34679;51.436;-2.518;2022-07-05T08:29:13;7.90;;;1.00;;
48859;SDS011;34679;51.436;-2.518;2022-07-05T08:31:41;2.58;;;1.02;;
48859;SDS011;34679;51.436;-2.518;2022-07-05T08:34:12;2.72;;;0.93;;
48859;SDS011;34679;51.436;-2.518;2022-07-05T08:36:38;8.50;;;1.77;;
48859;SDS011;34679;51.436;-2.518;2022-07-05T08:39:06;3.08;;;1.25;;
48859;SDS011;34679;51.436;-2.518;2022-07-05T08:41:38;3.67;;;1.15;;
48859;SDS011;34679;51.436;-2.518;2022-07-05T08:44:05;3.33;;;1.02;;
48859;SDS011;34679;51.436;-2.518;2022-07-05T08:46:32;3.78;;;1.02;;
48859;SDS011;34679;51.436;-2.518;2022-07-05T08:49:00;3.97;;;1.30;;
48859;SDS011;34679;51.436;-2.518;2022-07-05T08:51:28;7.32;;;1.33;;
48859;SDS011;34679;51.436;-2.518;2022-07-05T08:53:54;5.70;;;1.13;;
48859;SDS011;34679;51.436;-2.518;2022-07-05T08:56:23;2.80;;;0.85;;
48859;SDS011;34679;51.436;-2.518;2022-07-05T08:58:49;5.35;;;0.98;;
48859;SDS011;34679;51.436;-2.518;2022-07-05T09:01:15;4.28;;;1.02;;
48859;SDS011;34679;51.436;-2.518;2022-07-05T09:03:48;4.20;;;1.42;;
48859;SDS011;34679;51.436;-2.518;2022-07-05T09:06:18;4.35;;;1.23;;
48859;SDS011;34679;51.436;-2.518;2022-07-05T09:08:45;8.07;;;1.10;;
48859;SDS011;34679;51.436;-2.518;2022-07-05T09:11:13;5.18;;;1.23;;
48859;SDS011;34679;51.436;-2.518;2022-07-05T09:13:42;5.35;;;1.30;;
48859;SDS011;34679;51.436;-2.518;2022-07-05T09:16:09;3.83;;;1.27;;
48859;SDS011;34679;51.436;-2.518;2022-07-05T09:21:19;5.00;;;1.05;;
48859;SDS011;34679;51.436;-2.518;2022-07-05T09:23:53;3.10;;;1.27;;
48859;SDS011;34679;51.436;-2.518;2022-07-05T09:26:21;5.15;;;1.00;;
48859;SDS011;34679;51.436;-2.518;2022-07-05T09:29:12;4.45;;;1.45;;
48859;SDS011;34679;51.436;-2.518;2022-07-05T09:31:44;5.10;;;1.50;;
48859;SDS011;34679;51.436;-2.518;2022-07-05T09:34:20;7.22;;;1.52;;
48859;SDS011;34679;51.436;-2.518;2022-07-05T09:36:53;2.78;;;1.23;;
48859;SDS011;34679;51.436;-2.518;2022-07-05T09:44:55;4.18;;;1.13;;
48859;SDS011;34679;51.436;-2.518;2022-07-05T09:47:22;3.30;;;1.30;;
48859;SDS011;34679;51.436;-2.518;2022-07-05T09:49:53;3.40;;;1.23;;
48859;SDS011;34679;51.436;-2.518;2022-07-05T09:57:45;4.35;;;1.35;;
48859;SDS011;34679;51.436;-2.518;2022-07-05T10:00:16;6.13;;;1.10;;
48859;SDS011;34679;51.436;-2.518;2022-07-05T10:02:44;3.53;;;1.20;;
48859;SDS011;34679;51.436;-2.518;2022-07-05T10:05:15;2.42;;;1.15;;
48859;SDS011;34679;51.436;-2.518;2022-07-05T10:07:47;5.95;;;1.52;;
48859;SDS011;34679;51.436;-2.518;2022-07-05T10:10:15;6.05;;;1.33;;
48859;SDS011;34679;51.436;-2.518;2022-07-05T10:12:42;4.93;;;1.30;;
48859;SDS011;34679;51.436;-2.518;2022-07-05T10:15:11;3.10;;;1.35;;
48859;SDS011;34679;51.436;-2.518;2022-07-05T10:18:11;4.07;;;1.50;;
48859;SDS011;34679;51.436;-2.518;2022-07-05T10:23:03;2.92;;;1.25;;
48859;SDS011;34679;51.436;-2.518;2022-07-05T10:25:30;5.40;;;1.42;;
48859;SDS011;34679;51.436;-2.518;2022-07-05T10:27:56;5.63;;;1.25;;
48859;SDS011;34679;51.436;-2.518;2022-07-05T10:30:23;7.20;;;1.48;;
48859;SDS011;34679;51.436;-2.518;2022-07-05T10:32:50;4.13;;;1.17;;
48859;SDS011;34679;51.436;-2.518;2022-07-05T10:35:16;4.35;;;1.45;;
48859;SDS011;34679;51.436;-2.518;2022-07-05T10:37:42;3.50;;;1.20;;
48859;SDS011;34679;51.436;-2.518;2022-07-05T10:40:09;7.38;;;1.40;;
48859;SDS011;34679;51.436;-2.518;2022-07-05T10:50:42;4.80;;;1.40;;
48859;SDS011;34679;51.436;-2.518;2022-07-05T10:53:08;4.32;;;1.17;;
48859;SDS011;34679;51.436;-2.518;2022-07-05T10:55:46;5.30;;;1.48;;
48859;SDS011;34679;51.436;-2.518;2022-07-05T11:01:31;6.53;;;1.27;;
48859;SDS011;34679;51.436;-2.518;2022-07-05T11:06:05;5.15;;;1.75;;
48859;SDS011;34679;51.436;-2.518;2022-07-05T11:11:40;5.75;;;1.52;;
48859;SDS011;34679;51.436;-2.518;2022-07-05T11:16:46;11.50;;;1.50;;
48859;SDS011;34679;51.436;-2.518;2022-07-05T11:19:14;6.78;;;1.67;;
48859;SDS011;34679;51.436;-2.518;2022-07-05T11:24:29;7.15;;;1.90;;
48859;SDS011;34679;51.436;-2.518;2022-07-05T11:27:00;6.32;;;1.75;;
48859;SDS011;34679;51.436;-2.518;2022-07-05T11:29:44;7.55;;;2.60;;
48859;SDS011;34679;51.436;-2.518;2022-07-05T11:34:38;6.35;;;1.90;;
48859;SDS011;34679;51.436;-2.518;2022-07-05T11:42:56;7.13;;;2.03;;
48859;SDS011;34679;51.436;-2.518;2022-07-05T11:45:21;6.05;;;2.03;;
48859;SDS011;34679;51.436;-2.518;2022-07-05T11:47:47;8.48;;;2.00;;
48859;SDS011;34679;51.436;-2.518;2022-07-05T11:50:13;12.90;;;2.90;;
48859;SDS011;34679;51.436;-2.518;2022-07-05T11:52:39;5.05;;;1.85;;
48859;SDS011;34679;51.436;-2.518;2022-07-05T11:55:09;7.22;;;1.88;;
48859;SDS011;34679;51.436;-2.518;2022-07-05T11:57:36;4.20;;;1.88;;
48859;SDS011;34679;51.436;-2.518;2022-07-05T12:00:03;8.98;;;2.30;;
48859;SDS011;34679;51.436;-2.518;2022-07-05T12:02:29;4.60;;;1.77;;
48859;SDS011;34679;51.436;-2.518;2022-07-05T12:04:56;6.10;;;1.75;;
48859;SDS011;34679;51.436;-2.518;2022-07-05T12:09:52;11.18;;;2.00;;
48859;SDS011;34679;51.436;-2.518;2022-07-05T12:12:36;7.28;;;1.88;;
48859;SDS011;34679;51.436;-2.518;2022-07-05T12:15:08;6.68;;;1.58;;
48859;SDS011;34679;51.436;-2.518;2022-07-05T12:17:42;4.65;;;2.35;;
48859;SDS011;34679;51.436;-2.518;2022-07-05T12:20:11;8.57;;;2.00;;
48859;SDS011;34679;51.436;-2.518;2022-07-05T12:22:42;7.45;;;1.85;;
48859;SDS011;34679;51.436;-2.518;2022-07-05T12:25:15;10.88;;;2.17;;
48859;SDS011;34679;51.436;-2.518;2022-07-05T12:27:46;4.13;;;1.50;;
48859;SDS011;34679;51.436;-2.518;2022-07-05T12:30:14;5.65;;;2.00;;
48859;SDS011;34679;51.436;-2.518;2022-07-05T12:33:00;7.75;;;1.60;;
48859;SDS011;34679;51.436;-2.518;2022-07-05T12:37:56;11.40;;;1.95;;
48859;SDS011;34679;51.436;-2.518;2022-07-05T12:40:32;11.38;;;1.92;;
48859;SDS011;34679;51.436;-2.518;2022-07-05T12:43:05;9.52;;;1.70;;
48859;SDS011;34679;51.436;-2.518;2022-07-05T12:45:36;8.27;;;2.30;;
48859;SDS011;34679;51.436;-2.518;2022-07-05T12:48:04;10.32;;;2.20;;
48859;SDS011;34679;51.436;-2.518;2022-07-05T12:50:47;8.48;;;2.10;;
48859;SDS011;34679;51.436;-2.518;2022-07-05T12:53:15;8.63;;;2.95;;
48859;SDS011;34679;51.436;-2.518;2022-07-05T12:56:01;10.65;;;1.70;;
48859;SDS011;34679;51.436;-2.518;2022-07-05T13:01:56;7.45;;;1.88;;
48859;SDS011;34679;51.436;-2.518;2022-07-05T13:04:08;6.43;;;1.60;;
48859;SDS011;34679;51.436;-2.518;2022-07-05T13:06:44;3.97;;;1.70;;
48859;SDS011;34679;51.436;-2.518;2022-07-05T13:09:36;6.32;;;2.13;;
48859;SDS011;34679;51.436;-2.518;2022-07-05T13:14:31;7.00;;;1.70;;
48859;SDS011;34679;51.436;-2.518;2022-07-05T13:16:57;8.85;;;1.63;;
48859;SDS011;34679;51.436;-2.518;2022-07-05T13:19:23;7.50;;;2.40;;
48859;SDS011;34679;51.436;-2.518;2022-07-05T13:21:49;8.30;;;1.38;;
48859;SDS011;34679;51.436;-2.518;2022-07-05T13:24:14;12.80;;;1.98;;
48859;SDS011;34679;51.436;-2.518;2022-07-05T13:26:40;8.70;;;1.52;;
48859;SDS011;34679;51.436;-2.518;2022-07-05T13:29:06;9.77;;;1.50;;
48859;SDS011;34679;51.436;-2.518;2022-07-05T13:31:31;5.80;;;1.40;;
48859;SDS011;34679;51.436;-2.518;2022-07-05T13:33:58;6.90;;;1.55;;
48859;SDS011;34679;51.436;-2.518;2022-07-05T13:36:25;5.10;;;1.40;;
48859;SDS011;34679;51.436;-2.518;2022-07-05T13:38:51;6.57;;;1.73;;
48859;SDS011;34679;51.436;-2.518;2022-07-05T13:41:17;6.97;;;2.13;;
48859;SDS011;34679;51.436;-2.518;2022-07-05T13:43:42;6.65;;;1.67;;
48859;SDS011;34679;51.436;-2.518;2022-07-05T13:46:09;10.10;;;1.58;;
48859;SDS011;34679;51.436;-2.518;2022-07-05T13:48:36;5.82;;;1.70;;
48859;SDS011;34679;51.436;-2.518;2022-07-05T13:51:02;5.97;;;1.70;;
48859;SDS011;34679;51.436;-2.518;2022-07-05T13:53:28;8.57;;;1.70;;
48859;SDS011;34679;51.436;-2.518;2022-07-05T13:55:54;7.85;;;2.00;;
48859;SDS011;34679;51.436;-2.518;2022-07-05T13:58:20;5.60;;;1.90;;
48859;SDS011;34679;51.436;-2.518;2022-07-05T14:00:45;6.03;;;1.70;;
48859;SDS011;34679;51.436;-2.518;2022-07-05T14:03:11;9.38;;;1.70;;
48859;SDS011;34679;51.436;-2.518;2022-07-05T14:05:37;5.72;;;1.67;;
48859;SDS011;34679;51.436;-2.518;2022-07-05T14:08:02;9.48;;;1.98;;
48859;SDS011;34679;51.436;-2.518;2022-07-05T14:10:28;8.30;;;1.65;;
48859;SDS011;34679;51.436;-2.518;2022-07-05T14:12:54;7.15;;;1.77;;
48859;SDS011;34679;51.436;-2.518;2022-07-05T14:15:20;8.90;;;2.10;;
48859;SDS011;34679;51.436;-2.518;2022-07-05T14:17:46;9.27;;;2.33;;
48859;SDS011;34679;51.436;-2.518;2022-07-05T14:20:11;7.22;;;1.73;;
48859;SDS011;34679;51.436;-2.518;2022-07-05T14:22:38;4.93;;;1.45;;
48859;SDS011;34679;51.436;-2.518;2022-07-05T14:25:04;5.70;;;1.70;;
48859;SDS011;34679;51.436;-2.518;2022-07-05T14:27:30;4.25;;;1.70;;
48859;SDS011;34679;51.436;-2.518;2022-07-05T14:29:56;4.53;;;1.80;;
48859;SDS011;34679;51.436;-2.518;2022-07-05T14:32:22;6.95;;;2.08;;
48859;SDS011;34679;51.436;-2.518;2022-07-05T14:34:48;8.93;;;2.00;;
48859;SDS011;34679;51.436;-2.518;2022-07-05T14:37:14;6.30;;;2.15;;
48859;SDS011;34679;51.436;-2.518;2022-07-05T14:39:40;4.28;;;1.60;;
48859;SDS011;34679;51.436;-2.518;2022-07-05T14:42:06;5.22;;;1.77;;
48859;SDS011;34679;51.436;-2.518;2022-07-05T14:44:32;9.55;;;1.90;;
48859;SDS011;34679;51.436;-2.518;2022-07-05T14:46:58;9.20;;;1.92;;
48859;SDS011;34679;51.436;-2.518;2022-07-05T14:49:24;4.15;;;1.67;;
48859;SDS011;34679;51.436;-2.518;2022-07-05T14:51:49;8.15;;;2.10;;
48859;SDS011;34679;51.436;-2.518;2022-07-05T14:54:15;5.15;;;2.00;;
48859;SDS011;34679;51.436;-2.518;2022-07-05T14:56:41;4.18;;;1.30;;
48859;SDS011;34679;51.436;-2.518;2022-07-05T14:59:06;5.95;;;1.58;;
48859;SDS011;34679;51.436;-2.518;2022-07-05T15:01:32;7.20;;;1.60;;
48859;SDS011;34679;51.436;-2.518;2022-07-05T15:03:58;3.45;;;1.95;;
48859;SDS011;34679;51.436;-2.518;2022-07-05T15:06:23;6.40;;;1.80;;
48859;SDS011;34679;51.436;-2.518;2022-07-05T15:08:49;4.32;;;1.65;;
48859;SDS011;34679;51.436;-2.518;2022-07-05T15:11:15;4.72;;;1.63;;
48859;SDS011;34679;51.436;-2.518;2022-07-05T15:13:40;5.13;;;1.63;;
48859;SDS011;34679;51.436;-2.518;2022-07-05T15:16:06;5.78;;;1.50;;
48859;SDS011;34679;51.436;-2.518;2022-07-05T15:18:32;6.05;;;1.48;;
48859;SDS011;34679;51.436;-2.518;2022-07-05T15:20:58;8.70;;;1.38;;
48859;SDS011;34679;51.436;-2.518;2022-07-05T15:23:23;5.97;;;1.42;;
48859;SDS011;34679;51.436;-2.518;2022-07-05T15:25:55;3.40;;;1.50;;
48859;SDS011;34679;51.436;-2.518;2022-07-05T15:28:24;5.63;;;1.50;;
48859;SDS011;34679;51.436;-2.518;2022-07-05T15:30:50;6.25;;;1.10;;